This is the latest recevied packets stored in our database for station/object EDDB/SXF. If no packets are shown the sender has not sent any packets the latest 24 hours.

If you compare the raw packets with similar data from other websites it may differ (especially the path), the reason is that we are not collecting packets from the same APRS-IS servers. Each APRS-IS server performes duplicate filtering, and which packet that is considered to be a duplicate may differ depending on which APRS-IS server you receive your data from.

1591010370: DB0TGO-15>APRX29,TCPIP*,qAC,T2FRA:;EDDB/SXF *111928z5223.18N/01331.12E^METAR: 011050Z 03010KT 340V070 CAVOK 22/05 Q1023 NOSIG \ AFIS: 132.65 MHz ATIS: 125.9 MHz GND: 129.5 MHz TWR: 120.025 MHz

1591011322: DB0TGO-15>APRX29,TCPIP*,qAC,T2FRA:;EDDB/SXF *113518z5223.18N/01331.12E^METAR: 011120Z 03010KT 360V080 CAVOK 22/04 Q1023 NOSIG \ AFIS: 132.65 MHz ATIS: 125.9 MHz GND: 129.5 MHz TWR: 120.025 MHz

1591012431: DB0TGO-15>APRX29,TCPIP*,qAC,T2FRA:;EDDB/SXF *115348z5223.18N/01331.12E^METAR: 011150Z 03010KT 350V080 CAVOK 23/04 Q1023 NOSIG \ AFIS: 132.65 MHz ATIS: 125.9 MHz GND: 129.5 MHz TWR: 120.025 MHz

1591013491: DB0TGO-15>APRX29,TCPIP*,qAC,T2FRA:;EDDB/SXF *121128z5223.18N/01331.12E^METAR: 011150Z 03010KT 350V080 CAVOK 23/04 Q1023 NOSIG \ AFIS: 132.65 MHz ATIS: 125.9 MHz GND: 129.5 MHz TWR: 120.025 MHz

1591014447: DB0TGO-15>APRX29,TCPIP*,qAC,T2FRA:;EDDB/SXF *122723z5223.18N/01331.12E^METAR: 011220Z 03009KT 360V080 CAVOK 23/03 Q1023 NOSIG \ AFIS: 132.65 MHz ATIS: 125.9 MHz GND: 129.5 MHz TWR: 120.025 MHz

1591015411: DB0TGO-15>APRX29,TCPIP*,qAC,T2FRA:;EDDB/SXF *124328z5223.18N/01331.12E^METAR: 011220Z 03009KT 360V080 CAVOK 23/03 Q1023 NOSIG \ AFIS: 132.65 MHz ATIS: 125.9 MHz GND: 129.5 MHz TWR: 120.025 MHz

1591016341: DB0TGO-15>APRX29,TCPIP*,qAC,T2FRA:;EDDB/SXF *125858z5223.18N/01331.12E^METAR: 011250Z 07011KT 360V100 CAVOK 24/05 Q1022 NOSIG \ AFIS: 132.65 MHz ATIS: 125.9 MHz GND: 129.5 MHz TWR: 120.025 MHz

1591017471: DB0TGO-15>APRX29,TCPIP*,qAC,T2FRA:;EDDB/SXF *131748z5223.18N/01331.12E^METAR: 011250Z 07011KT 360V100 CAVOK 24/05 Q1022 NOSIG \ AFIS: 132.65 MHz ATIS: 125.9 MHz GND: 129.5 MHz TWR: 120.025 MHz

1591018387: DB0TGO-15>APRX29,TCPIP*,qAC,T2FRA:;EDDB/SXF *133258z5223.18N/01331.12E^METAR: 011320Z 02012KT 360V060 CAVOK 24/04 Q1022 NOSIG \ AFIS: 132.65 MHz ATIS: 125.9 MHz GND: 129.5 MHz TWR: 120.025 MHz

1591019471: DB0TGO-15>APRX29,TCPIP*,qAC,T2FRA:;EDDB/SXF *135108z5223.18N/01331.12E^METAR: 011320Z 02012KT 360V060 CAVOK 24/04 Q1022 NOSIG \ AFIS: 132.65 MHz ATIS: 125.9 MHz GND: 129.5 MHz TWR: 120.025 MHz

1591020576: DB0TGO-15>APRX29,TCPIP*,qAC,T2FRA:;EDDB/SXF *140933z5223.18N/01331.12E^METAR: 011350Z 04010KT 350V090 CAVOK 24/03 Q1022 NOSIG \ AFIS: 132.65 MHz ATIS: 125.9 MHz GND: 129.5 MHz TWR: 120.025 MHz

1591021669: DB0TGO-15>APRX29,TCPIP*,qAC,T2FRA:;EDDB/SXF *142746z5223.18N/01331.12E^METAR: 011420Z 06013KT 040V100 CAVOK 24/04 Q1022 NOSIG \ AFIS: 132.65 MHz ATIS: 125.9 MHz GND: 129.5 MHz TWR: 120.025 MHz

1591022666: DB0TGO-15>APRX29,TCPIP*,qAC,T2FRA:;EDDB/SXF *144423z5223.18N/01331.12E^METAR: 011420Z 06013KT 040V100 CAVOK 24/04 Q1022 NOSIG \ AFIS: 132.65 MHz ATIS: 125.9 MHz GND: 129.5 MHz TWR: 120.025 MHz

1591023796: DB0TGO-15>APRX29,TCPIP*,qAC,T2FRA:;EDDB/SXF *150313z5223.18N/01331.12E^METAR: 011450Z 06014KT CAVOK 23/05 Q1022 NOSIG \ AFIS: 132.65 MHz ATIS: 125.9 MHz GND: 129.5 MHz TWR: 120.025 MHz

1591024796: DB0TGO-15>APRX29,TCPIP*,qAC,T2FRA:;EDDB/SXF *151953z5223.18N/01331.12E^METAR: 011450Z 06014KT CAVOK 23/05 Q1022 NOSIG \ AFIS: 132.65 MHz ATIS: 125.9 MHz GND: 129.5 MHz TWR: 120.025 MHz

1591025720: DB0TGO-15>APRX29,TCPIP*,qAC,T2FRA:;EDDB/SXF *153517z5223.18N/01331.12E^METAR: 011520Z 05013KT 020V080 CAVOK 23/06 Q1021 NOSIG \ AFIS: 132.65 MHz ATIS: 125.9 MHz GND: 129.5 MHz TWR: 120.025 MHz

1591026686: DB0TGO-15>APRX29,TCPIP*,qAC,T2FRA:;EDDB/SXF *155123z5223.18N/01331.12E^METAR: 011520Z 05013KT 020V080 CAVOK 23/06 Q1021 NOSIG \ AFIS: 132.65 MHz ATIS: 125.9 MHz GND: 129.5 MHz TWR: 120.025 MHz

Initial position
Current position
Ruler